This is the latest recevied weather packets stored in our database for station/object YO8RBY-2. If no packets are shown the sender has not sent any weather packets the latest 10 day(s).
| Time | Temp. | Humidity | Pressure | Rain* | Wind** | Luminosity | Snow |
|---|---|---|---|---|---|---|---|
| 1777794361 | 19.44° C | 24% | 980 hPa | - | - | 0 W/m² | - |
| 1777792526 | 18.33° C | 25% | 980 hPa | - | - | 0 W/m² | - |
| 1777781580 | 7.22° C | 49% | 980 hPa | - | - | 0 W/m² | - |
| 1777777932 | 6.11° C | 51% | 980 hPa | - | - | 0 W/m² | - |
| 1777776108 | 6.11° C | 51% | 980 hPa | - | - | 0 W/m² | - |
| 1777774284 | 6.11° C | 50% | 980 hPa | - | - | 0 W/m² | - |
| 1777772459 | 6.11° C | 51% | 980 hPa | - | - | 0 W/m² | - |
| 1777770635 | 6.11° C | 50% | 980 hPa | - | - | 0 W/m² | - |
| 1777768811 | 6.67° C | 50% | 980 hPa | - | - | 0 W/m² | - |
| 1777766988 | 6.67° C | 50% | 980 hPa | - | - | 0 W/m² | - |
| 1777765163 | 7.22° C | 50% | 980 hPa | - | - | 0 W/m² | - |
| 1777763339 | 7.78° C | 50% | 980 hPa | - | - | 0 W/m² | - |
| 1777757866 | 9.44° C | 47% | 981 hPa | - | - | 0 W/m² | - |
| 1777754218 | 10.56° C | 45% | 981 hPa | - | - | 0 W/m² | - |
| 1777739597 | 18.33° C | 29% | 980 hPa | - | - | 0 W/m² | - |
| 1777737773 | 19.44° C | 28% | 980 hPa | - | - | 0 W/m² | - |
| 1777735949 | 18.89° C | 29% | 980 hPa | - | - | 0 W/m² | - |
| 1777734124 | 20° C | 28% | 980 hPa | - | - | 0 W/m² | - |
| 1777732300 | 20° C | 28% | 980 hPa | - | - | 0 W/m² | - |
| 1777730477 | 19.44° C | 29% | 980 hPa | - | - | 0 W/m² | - |
| 1777728656 | 21.11° C | 28% | 980 hPa | - | - | 0 W/m² | - |
| 1777717707 | 15.56° C | 40% | 981 hPa | - | - | 0 W/m² | - |
| 1777715884 | 15° C | 39% | 981 hPa | - | - | 0 W/m² | - |
| 1777714056 | 15.56° C | 39% | 981 hPa | - | - | 0 W/m² | - |
| 1777712233 | 15.56° C | 39% | 981 hPa | - | - | 0 W/m² | - |
* Rain since midnight (hover to see other rain measurements)
** Current wind speed in m/s (hover to see current wind gust speed)